Hlavní strana
METAR-TAF:

METAR-TAF

Letiště :

Hanover County Municipal Airport

Richmond / Ashland, Virginie, Spojené státy americké

zeměpisná šířka: 37-42-29N, zeměpisná délka: 077-26-04W, výška: 62 m

Aktuální stav počasí

Zpráva byla vytvořena před 23 minutami, v 09:54 UTC
Bezvětří
Teplota 22°C
Vlhkost vzduchu 94%
Tlak 1019 hPa
Viditelnost: 16.1 km
Skoro jasno ve výšce 600 ft
Zataženo ve výšce 1000 ft

METAR: KOFP 070954Z AUTO 00000KT 10SM FEW006 OVC010 22/21 A3009 RMK AO2 SLP187 T02220211

Čas: 06:17 (10:17 UTC)


TAF: chybějící

Stav a předpovědi počasí z více než 4 000 letišť (zprávy METAR a TAF).

Červené a žluté tečky na mapě představují dostupné meteorologické stanice.

Když kurzor umístíte na tečku, zobrazí se název stanice.

Pak kliknutím zobrazíte stav a předpověď počasí.

Chcete-li změnit mapu, kliknutím na zelené tlačítko se znaménkem +mapu přiblížíte, kliknutím na zelené tlačítko se znaménkem – mapu oddálíte a kliknutím na zelené šipky přejdete na sousední mapy.


METAR-TAF: